createdAt,value
2018-03-28T00:14:30.893Z,36.9
2018-03-28T00:29:30.794Z,26.5
2018-03-28T00:49:30.781Z,30.9
2018-03-28T01:04:30.785Z,31
2018-03-28T01:19:30.937Z,29
2018-03-28T01:39:30.975Z,27.3
2018-03-28T01:54:30.751Z,28.3
2018-03-28T02:09:30.954Z,30.3
2018-03-28T02:24:30.946Z,33.3
2018-03-28T02:44:31.212Z,33.2
2018-03-28T02:59:31.408Z,38.6
2018-03-28T03:14:31.299Z,38.6
2018-03-28T03:34:31.429Z,48.4
2018-03-28T03:49:31.305Z,39.5
2018-03-28T04:04:31.496Z,50.3
2018-03-28T04:19:31.306Z,49.7
2018-03-28T04:39:32.436Z,58
2018-03-28T04:54:32.789Z,49.7
2018-03-28T05:09:32.657Z,50.2
2018-03-28T05:29:32.649Z,38.4
2018-03-28T05:44:32.685Z,41.9
2018-03-28T05:59:32.660Z,44.1
2018-03-28T06:14:32.821Z,43.5
2018-03-28T06:34:32.958Z,39.6
2018-03-28T07:04:32.827Z,39.7
2018-03-28T07:39:32.988Z,40.2
2018-03-28T07:54:32.982Z,35.7
2018-03-28T08:09:33.458Z,40.3
2018-03-28T08:29:33.039Z,45.9
2018-03-28T08:44:33.027Z,35.3
2018-03-28T08:59:33.023Z,36.1
2018-03-28T09:19:32.924Z,46.2
2018-03-28T09:49:36.191Z,40.7
2018-03-28T10:04:36.236Z,35.3
2018-03-28T10:39:36.254Z,43
2018-03-28T10:54:36.253Z,47.2
2018-03-28T11:14:36.250Z,38.5
2018-03-28T11:29:36.268Z,32.2
2018-03-28T11:44:36.240Z,34.1
2018-03-28T12:19:36.291Z,25.3
2018-03-28T12:34:36.417Z,22.1
2018-03-28T12:49:37.342Z,21.7
2018-03-28T13:09:36.635Z,22.2
2018-03-28T13:24:36.460Z,21
2018-03-28T13:39:36.817Z,29.2
2018-03-28T13:54:36.341Z,18.4
2018-03-28T14:29:42.533Z,19.9
2018-03-28T15:04:37.299Z,26
2018-03-28T15:54:37.780Z,43.5
2018-03-28T16:09:38.346Z,39.8
2018-03-28T16:24:37.340Z,38.5
2018-03-28T16:39:37.802Z,36.9
2018-03-28T17:14:37.379Z,36.5
2018-03-28T17:29:37.386Z,48.2
2018-03-28T17:49:37.399Z,38.4
2018-03-28T18:04:37.679Z,44.3
2018-03-28T18:19:37.762Z,31.2
2018-03-28T18:34:37.448Z,20.2
2018-03-28T18:54:37.706Z,13.2
2018-03-28T19:09:37.524Z,10.3
2018-03-28T19:24:42.169Z,23.9
2018-03-28T19:44:47.043Z,28.8
2018-03-28T19:59:47.033Z,23.3
2018-03-28T20:14:48.309Z,35.7
2018-03-28T20:34:47.011Z,43.2
2018-03-28T20:49:47.057Z,30.1
2018-03-28T21:04:47.138Z,27
2018-03-28T21:19:47.007Z,42.5
2018-03-28T21:39:47.063Z,41.1
2018-03-28T21:54:47.359Z,39
2018-03-28T22:09:47.096Z,35.3
2018-03-28T22:44:47.319Z,32.4
2018-03-28T22:59:47.119Z,36.2
2018-03-28T23:14:47.148Z,28.2
2018-03-28T23:49:47.368Z,31.1
